sensor_id;sensor_type;location;lat;lon;timestamp;P1;durP1;ratioP1;P2;durP2;ratioP2
15358;SDS011;7779;49.596;11.070;2023-08-07T00:00:51;0.70;;;0.20;;
15358;SDS011;7779;49.596;11.070;2023-08-07T00:03:17;0.70;;;0.20;;
15358;SDS011;7779;49.596;11.070;2023-08-07T00:05:50;0.20;;;0.10;;
15358;SDS011;7779;49.596;11.070;2023-08-07T00:08:20;0.03;;;0.03;;
15358;SDS011;7779;49.596;11.070;2023-08-07T00:10:45;0.20;;;0.20;;
15358;SDS011;7779;49.596;11.070;2023-08-07T00:13:12;0.57;;;0.20;;
15358;SDS011;7779;49.596;11.070;2023-08-07T00:15:38;0.37;;;0.10;;
15358;SDS011;7779;49.596;11.070;2023-08-07T00:18:04;0.20;;;0.20;;
15358;SDS011;7779;49.596;11.070;2023-08-07T00:20:30;0.23;;;0.10;;
15358;SDS011;7779;49.596;11.070;2023-08-07T00:22:56;0.63;;;0.10;;
15358;SDS011;7779;49.596;11.070;2023-08-07T00:25:21;1.33;;;0.30;;
15358;SDS011;7779;49.596;11.070;2023-08-07T00:27:47;0.40;;;0.10;;
15358;SDS011;7779;49.596;11.070;2023-08-07T00:30:13;0.23;;;0.20;;
15358;SDS011;7779;49.596;11.070;2023-08-07T00:32:39;0.50;;;0.10;;
15358;SDS011;7779;49.596;11.070;2023-08-07T00:35:05;0.03;;;0.03;;
15358;SDS011;7779;49.596;11.070;2023-08-07T00:37:33;0.77;;;0.10;;
15358;SDS011;7779;49.596;11.070;2023-08-07T00:40:01;0.53;;;0.10;;
15358;SDS011;7779;49.596;11.070;2023-08-07T00:42:27;0.20;;;0.20;;
15358;SDS011;7779;49.596;11.070;2023-08-07T00:44:53;0.40;;;0.20;;
15358;SDS011;7779;49.596;11.070;2023-08-07T00:47:19;0.10;;;0.10;;
15358;SDS011;7779;49.596;11.070;2023-08-07T00:49:45;0.30;;;0.10;;
15358;SDS011;7779;49.596;11.070;2023-08-07T00:52:12;0.00;;;0.00;;
15358;SDS011;7779;49.596;11.070;2023-08-07T00:54:38;0.10;;;0.10;;
15358;SDS011;7779;49.596;11.070;2023-08-07T00:57:10;0.60;;;0.20;;
15358;SDS011;7779;49.596;11.070;2023-08-07T00:59:40;0.40;;;0.10;;
15358;SDS011;7779;49.596;11.070;2023-08-07T01:02:07;0.30;;;0.10;;
15358;SDS011;7779;49.596;11.070;2023-08-07T01:04:34;0.00;;;0.00;;
15358;SDS011;7779;49.596;11.070;2023-08-07T01:07:01;0.13;;;0.10;;
15358;SDS011;7779;49.596;11.070;2023-08-07T01:09:27;0.27;;;0.10;;
15358;SDS011;7779;49.596;11.070;2023-08-07T01:12:39;1.07;;;0.17;;
15358;SDS011;7779;49.596;11.070;2023-08-07T01:17:25;0.10;;;0.10;;
15358;SDS011;7779;49.596;11.070;2023-08-07T01:19:52;0.07;;;0.07;;
15358;SDS011;7779;49.596;11.070;2023-08-07T01:22:20;0.20;;;0.10;;
15358;SDS011;7779;49.596;11.070;2023-08-07T01:24:48;0.20;;;0.10;;
15358;SDS011;7779;49.596;11.070;2023-08-07T01:29:54;1.00;;;0.13;;
15358;SDS011;7779;49.596;11.070;2023-08-07T01:35:25;0.10;;;0.10;;
15358;SDS011;7779;49.596;11.070;2023-08-07T01:37:56;0.20;;;0.20;;
15358;SDS011;7779;49.596;11.070;2023-08-07T01:40:24;1.47;;;0.30;;
15358;SDS011;7779;49.596;11.070;2023-08-07T01:42:52;0.63;;;0.20;;
15358;SDS011;7779;49.596;11.070;2023-08-07T01:45:22;0.23;;;0.20;;
15358;SDS011;7779;49.596;11.070;2023-08-07T01:47:49;0.67;;;0.40;;
15358;SDS011;7779;49.596;11.070;2023-08-07T01:50:15;0.10;;;0.10;;
15358;SDS011;7779;49.596;11.070;2023-08-07T01:52:41;0.50;;;0.20;;
15358;SDS011;7779;49.596;11.070;2023-08-07T01:55:07;0.57;;;0.27;;
15358;SDS011;7779;49.596;11.070;2023-08-07T01:57:33;0.30;;;0.23;;
15358;SDS011;7779;49.596;11.070;2023-08-07T01:59:58;0.20;;;0.17;;
15358;SDS011;7779;49.596;11.070;2023-08-07T02:02:24;0.43;;;0.10;;
15358;SDS011;7779;49.596;11.070;2023-08-07T02:04:50;3.60;;;0.33;;
15358;SDS011;7779;49.596;11.070;2023-08-07T02:07:16;0.97;;;0.10;;
15358;SDS011;7779;49.596;11.070;2023-08-07T02:09:41;0.30;;;0.10;;
15358;SDS011;7779;49.596;11.070;2023-08-07T02:12:07;0.60;;;0.13;;
15358;SDS011;7779;49.596;11.070;2023-08-07T02:14:33;0.40;;;0.20;;
15358;SDS011;7779;49.596;11.070;2023-08-07T02:16:59;0.20;;;0.20;;
15358;SDS011;7779;49.596;11.070;2023-08-07T02:19:25;0.40;;;0.27;;
15358;SDS011;7779;49.596;11.070;2023-08-07T02:21:50;0.50;;;0.20;;
15358;SDS011;7779;49.596;11.070;2023-08-07T02:24:16;0.67;;;0.30;;
15358;SDS011;7779;49.596;11.070;2023-08-07T02:26:43;1.00;;;0.20;;
15358;SDS011;7779;49.596;11.070;2023-08-07T02:29:09;0.50;;;0.20;;
15358;SDS011;7779;49.596;11.070;2023-08-07T02:31:35;1.90;;;0.37;;
15358;SDS011;7779;49.596;11.070;2023-08-07T02:34:00;0.40;;;0.20;;
15358;SDS011;7779;49.596;11.070;2023-08-07T02:36:26;0.97;;;0.10;;
15358;SDS011;7779;49.596;11.070;2023-08-07T02:38:52;1.60;;;0.20;;
15358;SDS011;7779;49.596;11.070;2023-08-07T02:41:20;0.60;;;0.37;;
15358;SDS011;7779;49.596;11.070;2023-08-07T02:43:45;1.33;;;0.30;;
15358;SDS011;7779;49.596;11.070;2023-08-07T02:46:11;0.30;;;0.17;;
15358;SDS011;7779;49.596;11.070;2023-08-07T02:48:37;0.20;;;0.17;;
15358;SDS011;7779;49.596;11.070;2023-08-07T02:51:04;0.60;;;0.20;;
15358;SDS011;7779;49.596;11.070;2023-08-07T02:53:30;0.63;;;0.10;;
15358;SDS011;7779;49.596;11.070;2023-08-07T02:55:55;0.20;;;0.20;;
15358;SDS011;7779;49.596;11.070;2023-08-07T02:58:21;1.33;;;0.23;;
15358;SDS011;7779;49.596;11.070;2023-08-07T03:00:47;0.53;;;0.20;;
15358;SDS011;7779;49.596;11.070;2023-08-07T03:03:12;0.40;;;0.20;;
15358;SDS011;7779;49.596;11.070;2023-08-07T03:05:38;0.30;;;0.17;;
15358;SDS011;7779;49.596;11.070;2023-08-07T03:08:04;0.13;;;0.10;;
15358;SDS011;7779;49.596;11.070;2023-08-07T03:10:29;0.23;;;0.10;;
15358;SDS011;7779;49.596;11.070;2023-08-07T03:12:55;0.60;;;0.20;;
15358;SDS011;7779;49.596;11.070;2023-08-07T03:15:21;0.40;;;0.10;;
15358;SDS011;7779;49.596;11.070;2023-08-07T03:17:47;0.30;;;0.27;;
15358;SDS011;7779;49.596;11.070;2023-08-07T03:20:12;1.80;;;0.30;;
15358;SDS011;7779;49.596;11.070;2023-08-07T03:22:38;0.40;;;0.30;;
15358;SDS011;7779;49.596;11.070;2023-08-07T03:25:04;0.30;;;0.30;;
15358;SDS011;7779;49.596;11.070;2023-08-07T03:27:30;0.33;;;0.30;;
15358;SDS011;7779;49.596;11.070;2023-08-07T03:29:56;2.30;;;0.33;;
15358;SDS011;7779;49.596;11.070;2023-08-07T03:32:26;0.33;;;0.20;;
15358;SDS011;7779;49.596;11.070;2023-08-07T03:34:52;0.57;;;0.30;;
15358;SDS011;7779;49.596;11.070;2023-08-07T03:37:17;1.57;;;0.20;;
15358;SDS011;7779;49.596;11.070;2023-08-07T03:39:44;0.57;;;0.30;;
15358;SDS011;7779;49.596;11.070;2023-08-07T03:42:14;0.63;;;0.30;;
15358;SDS011;7779;49.596;11.070;2023-08-07T03:44:44;0.40;;;0.30;;
15358;SDS011;7779;49.596;11.070;2023-08-07T03:47:11;1.10;;;0.30;;
15358;SDS011;7779;49.596;11.070;2023-08-07T03:49:36;0.93;;;0.50;;
15358;SDS011;7779;49.596;11.070;2023-08-07T03:52:02;3.10;;;0.50;;
15358;SDS011;7779;49.596;11.070;2023-08-07T03:54:29;1.90;;;0.40;;
15358;SDS011;7779;49.596;11.070;2023-08-07T03:56:54;0.90;;;0.50;;
15358;SDS011;7779;49.596;11.070;2023-08-07T03:59:20;0.93;;;0.40;;
15358;SDS011;7779;49.596;11.070;2023-08-07T04:01:46;0.60;;;0.30;;
15358;SDS011;7779;49.596;11.070;2023-08-07T04:04:12;0.60;;;0.40;;
15358;SDS011;7779;49.596;11.070;2023-08-07T04:06:38;0.90;;;0.37;;
15358;SDS011;7779;49.596;11.070;2023-08-07T04:09:04;1.03;;;0.40;;
15358;SDS011;7779;49.596;11.070;2023-08-07T04:11:29;1.27;;;0.47;;
15358;SDS011;7779;49.596;11.070;2023-08-07T04:13:55;1.00;;;0.40;;
15358;SDS011;7779;49.596;11.070;2023-08-07T04:16:21;0.50;;;0.40;;
15358;SDS011;7779;49.596;11.070;2023-08-07T04:18:47;0.60;;;0.30;;
15358;SDS011;7779;49.596;11.070;2023-08-07T04:21:12;1.20;;;0.70;;
15358;SDS011;7779;49.596;11.070;2023-08-07T04:23:38;1.17;;;0.43;;
15358;SDS011;7779;49.596;11.070;2023-08-07T04:26:04;0.80;;;0.50;;
15358;SDS011;7779;49.596;11.070;2023-08-07T04:28:30;0.90;;;0.40;;
15358;SDS011;7779;49.596;11.070;2023-08-07T04:30:55;0.83;;;0.40;;
15358;SDS011;7779;49.596;11.070;2023-08-07T04:33:21;1.00;;;0.47;;
15358;SDS011;7779;49.596;11.070;2023-08-07T04:35:47;1.20;;;0.43;;
15358;SDS011;7779;49.596;11.070;2023-08-07T04:38:14;1.27;;;0.60;;
15358;SDS011;7779;49.596;11.070;2023-08-07T04:40:46;1.30;;;0.60;;
15358;SDS011;7779;49.596;11.070;2023-08-07T04:43:17;0.70;;;0.57;;
15358;SDS011;7779;49.596;11.070;2023-08-07T04:45:47;1.50;;;0.70;;
15358;SDS011;7779;49.596;11.070;2023-08-07T04:48:14;2.33;;;0.83;;
15358;SDS011;7779;49.596;11.070;2023-08-07T04:50:40;1.60;;;0.67;;
15358;SDS011;7779;49.596;11.070;2023-08-07T04:53:07;0.60;;;0.40;;
15358;SDS011;7779;49.596;11.070;2023-08-07T04:55:33;1.07;;;0.60;;
15358;SDS011;7779;49.596;11.070;2023-08-07T04:57:58;0.93;;;0.60;;
15358;SDS011;7779;49.596;11.070;2023-08-07T05:00:25;1.00;;;0.60;;
15358;SDS011;7779;49.596;11.070;2023-08-07T05:02:52;1.40;;;0.73;;
15358;SDS011;7779;49.596;11.070;2023-08-07T05:05:18;1.60;;;0.90;;
15358;SDS011;7779;49.596;11.070;2023-08-07T05:07:46;1.47;;;0.93;;
15358;SDS011;7779;49.596;11.070;2023-08-07T05:10:13;2.27;;;0.80;;
15358;SDS011;7779;49.596;11.070;2023-08-07T05:12:39;1.00;;;0.60;;
15358;SDS011;7779;49.596;11.070;2023-08-07T05:15:04;1.57;;;0.80;;
15358;SDS011;7779;49.596;11.070;2023-08-07T05:17:31;2.40;;;0.90;;
15358;SDS011;7779;49.596;11.070;2023-08-07T05:19:57;1.53;;;0.70;;
15358;SDS011;7779;49.596;11.070;2023-08-07T05:22:23;1.67;;;0.90;;
15358;SDS011;7779;49.596;11.070;2023-08-07T05:24:48;1.57;;;0.80;;
15358;SDS011;7779;49.596;11.070;2023-08-07T05:27:15;1.87;;;0.90;;
15358;SDS011;7779;49.596;11.070;2023-08-07T05:29:40;2.37;;;1.00;;
15358;SDS011;7779;49.596;11.070;2023-08-07T05:32:12;1.73;;;0.90;;
15358;SDS011;7779;49.596;11.070;2023-08-07T05:34:39;1.83;;;1.00;;
15358;SDS011;7779;49.596;11.070;2023-08-07T05:37:06;1.83;;;1.00;;
15358;SDS011;7779;49.596;11.070;2023-08-07T05:39:33;2.10;;;0.80;;
15358;SDS011;7779;49.596;11.070;2023-08-07T05:42:00;1.43;;;0.87;;
15358;SDS011;7779;49.596;11.070;2023-08-07T05:44:26;1.63;;;0.90;;
15358;SDS011;7779;49.596;11.070;2023-08-07T05:46:52;1.43;;;0.90;;
15358;SDS011;7779;49.596;11.070;2023-08-07T05:49:18;1.37;;;1.07;;
15358;SDS011;7779;49.596;11.070;2023-08-07T05:51:45;2.57;;;1.30;;
15358;SDS011;7779;49.596;11.070;2023-08-07T05:54:11;1.60;;;1.03;;
15358;SDS011;7779;49.596;11.070;2023-08-07T05:56:37;2.47;;;1.20;;
15358;SDS011;7779;49.596;11.070;2023-08-07T05:59:03;1.87;;;1.00;;
15358;SDS011;7779;49.596;11.070;2023-08-07T06:01:29;1.93;;;1.10;;
15358;SDS011;7779;49.596;11.070;2023-08-07T06:03:58;2.60;;;1.10;;
15358;SDS011;7779;49.596;11.070;2023-08-07T06:06:24;1.73;;;0.90;;
15358;SDS011;7779;49.596;11.070;2023-08-07T06:08:51;1.83;;;0.87;;
15358;SDS011;7779;49.596;11.070;2023-08-07T06:11:17;1.93;;;1.00;;
15358;SDS011;7779;49.596;11.070;2023-08-07T06:13:42;1.23;;;0.77;;
15358;SDS011;7779;49.596;11.070;2023-08-07T06:16:08;1.00;;;0.80;;
15358;SDS011;7779;49.596;11.070;2023-08-07T06:18:34;2.03;;;1.00;;
15358;SDS011;7779;49.596;11.070;2023-08-07T06:21:01;1.80;;;1.10;;
15358;SDS011;7779;49.596;11.070;2023-08-07T06:23:31;2.80;;;1.00;;
15358;SDS011;7779;49.596;11.070;2023-08-07T06:25:58;1.70;;;0.93;;
15358;SDS011;7779;49.596;11.070;2023-08-07T06:28:24;1.40;;;0.80;;
15358;SDS011;7779;49.596;11.070;2023-08-07T06:30:50;1.37;;;0.80;;
15358;SDS011;7779;49.596;11.070;2023-08-07T06:33:15;1.23;;;1.00;;
15358;SDS011;7779;49.596;11.070;2023-08-07T06:35:41;2.83;;;1.00;;
15358;SDS011;7779;49.596;11.070;2023-08-07T06:38:10;1.90;;;1.00;;
15358;SDS011;7779;49.596;11.070;2023-08-07T06:40:35;2.60;;;0.73;;
15358;SDS011;7779;49.596;11.070;2023-08-07T06:43:02;1.63;;;0.80;;
15358;SDS011;7779;49.596;11.070;2023-08-07T06:45:28;1.57;;;0.87;;
15358;SDS011;7779;49.596;11.070;2023-08-07T06:47:54;1.47;;;0.97;;
15358;SDS011;7779;49.596;11.070;2023-08-07T06:50:21;2.93;;;1.03;;
15358;SDS011;7779;49.596;11.070;2023-08-07T06:52:46;1.50;;;0.90;;
15358;SDS011;7779;49.596;11.070;2023-08-07T06:55:12;1.70;;;1.13;;
15358;SDS011;7779;49.596;11.070;2023-08-07T06:57:38;1.43;;;1.10;;
15358;SDS011;7779;49.596;11.070;2023-08-07T07:00:04;2.00;;;0.90;;
15358;SDS011;7779;49.596;11.070;2023-08-07T07:02:31;2.90;;;1.00;;
15358;SDS011;7779;49.596;11.070;2023-08-07T07:04:57;2.67;;;0.90;;
15358;SDS011;7779;49.596;11.070;2023-08-07T07:07:22;1.80;;;1.23;;
15358;SDS011;7779;49.596;11.070;2023-08-07T07:09:48;1.57;;;1.20;;
15358;SDS011;7779;49.596;11.070;2023-08-07T07:12:14;1.17;;;1.00;;
15358;SDS011;7779;49.596;11.070;2023-08-07T07:14:40;2.13;;;1.20;;
15358;SDS011;7779;49.596;11.070;2023-08-07T07:17:05;1.60;;;0.73;;
15358;SDS011;7779;49.596;11.070;2023-08-07T07:19:31;1.20;;;0.80;;
15358;SDS011;7779;49.596;11.070;2023-08-07T07:21:57;1.67;;;1.10;;
15358;SDS011;7779;49.596;11.070;2023-08-07T07:24:22;1.97;;;1.23;;
15358;SDS011;7779;49.596;11.070;2023-08-07T07:26:48;1.90;;;1.10;;
15358;SDS011;7779;49.596;11.070;2023-08-07T07:29:15;1.43;;;1.00;;
15358;SDS011;7779;49.596;11.070;2023-08-07T07:31:42;1.87;;;0.90;;
15358;SDS011;7779;49.596;11.070;2023-08-07T07:34:07;2.53;;;1.00;;
15358;SDS011;7779;49.596;11.070;2023-08-07T07:36:33;2.17;;;0.97;;
15358;SDS011;7779;49.596;11.070;2023-08-07T07:38:59;2.53;;;1.10;;
15358;SDS011;7779;49.596;11.070;2023-08-07T07:41:24;2.13;;;1.10;;
15358;SDS011;7779;49.596;11.070;2023-08-07T07:43:50;3.17;;;1.00;;
15358;SDS011;7779;49.596;11.070;2023-08-07T07:46:16;2.13;;;1.10;;
15358;SDS011;7779;49.596;11.070;2023-08-07T07:48:41;2.30;;;1.23;;
15358;SDS011;7779;49.596;11.070;2023-08-07T07:51:07;3.23;;;1.20;;
15358;SDS011;7779;49.596;11.070;2023-08-07T07:53:33;1.40;;;1.10;;
15358;SDS011;7779;49.596;11.070;2023-08-07T07:55:59;1.70;;;1.00;;
15358;SDS011;7779;49.596;11.070;2023-08-07T07:58:25;1.43;;;0.97;;
15358;SDS011;7779;49.596;11.070;2023-08-07T08:00:50;3.53;;;1.37;;
15358;SDS011;7779;49.596;11.070;2023-08-07T08:03:19;3.57;;;1.20;;
15358;SDS011;7779;49.596;11.070;2023-08-07T08:05:48;1.87;;;1.00;;
15358;SDS011;7779;49.596;11.070;2023-08-07T08:08:15;1.20;;;1.10;;
15358;SDS011;7779;49.596;11.070;2023-08-07T08:10:42;1.70;;;1.20;;
15358;SDS011;7779;49.596;11.070;2023-08-07T08:13:09;3.07;;;1.40;;
15358;SDS011;7779;49.596;11.070;2023-08-07T08:15:35;1.17;;;0.93;;
15358;SDS011;7779;49.596;11.070;2023-08-07T08:18:01;3.03;;;1.17;;
15358;SDS011;7779;49.596;11.070;2023-08-07T08:20:27;2.83;;;1.30;;
15358;SDS011;7779;49.596;11.070;2023-08-07T08:22:55;2.23;;;1.40;;
15358;SDS011;7779;49.596;11.070;2023-08-07T08:25:20;2.80;;;1.20;;
15358;SDS011;7779;49.596;11.070;2023-08-07T08:27:46;2.17;;;1.40;;
15358;SDS011;7779;49.596;11.070;2023-08-07T08:30:12;2.17;;;1.40;;
15358;SDS011;7779;49.596;11.070;2023-08-07T08:32:37;1.90;;;1.20;;
15358;SDS011;7779;49.596;11.070;2023-08-07T08:35:04;2.30;;;1.50;;
15358;SDS011;7779;49.596;11.070;2023-08-07T08:37:30;3.00;;;1.13;;
15358;SDS011;7779;49.596;11.070;2023-08-07T08:39:56;1.60;;;1.27;;
15358;SDS011;7779;49.596;11.070;2023-08-07T08:42:22;1.97;;;1.30;;
15358;SDS011;7779;49.596;11.070;2023-08-07T08:44:52;2.73;;;1.37;;
15358;SDS011;7779;49.596;11.070;2023-08-07T08:47:22;1.80;;;1.13;;
15358;SDS011;7779;49.596;11.070;2023-08-07T08:50:02;3.73;;;1.37;;
15358;SDS011;7779;49.596;11.070;2023-08-07T08:52:32;2.70;;;1.13;;
15358;SDS011;7779;49.596;11.070;2023-08-07T08:54:58;3.17;;;1.10;;
15358;SDS011;7779;49.596;11.070;2023-08-07T08:57:26;1.20;;;1.10;;
15358;SDS011;7779;49.596;11.070;2023-08-07T08:59:52;3.23;;;1.23;;
15358;SDS011;7779;49.596;11.070;2023-08-07T09:02:19;3.53;;;1.50;;
15358;SDS011;7779;49.596;11.070;2023-08-07T09:04:45;2.00;;;1.37;;
15358;SDS011;7779;49.596;11.070;2023-08-07T09:07:11;2.67;;;1.40;;
15358;SDS011;7779;49.596;11.070;2023-08-07T09:09:41;2.27;;;1.50;;
15358;SDS011;7779;49.596;11.070;2023-08-07T09:12:11;2.60;;;1.47;;
15358;SDS011;7779;49.596;11.070;2023-08-07T09:14:44;1.40;;;1.10;;
15358;SDS011;7779;49.596;11.070;2023-08-07T09:17:23;5.17;;;1.40;;
15358;SDS011;7779;49.596;11.070;2023-08-07T09:19:56;2.23;;;1.10;;
15358;SDS011;7779;49.596;11.070;2023-08-07T09:22:23;2.07;;;1.20;;
15358;SDS011;7779;49.596;11.070;2023-08-07T09:24:49;4.30;;;1.20;;
15358;SDS011;7779;49.596;11.070;2023-08-07T09:27:15;1.73;;;1.30;;
15358;SDS011;7779;49.596;11.070;2023-08-07T09:29:43;2.70;;;1.30;;
15358;SDS011;7779;49.596;11.070;2023-08-07T09:32:11;2.33;;;1.10;;
15358;SDS011;7779;49.596;11.070;2023-08-07T09:34:41;2.00;;;1.20;;
15358;SDS011;7779;49.596;11.070;2023-08-07T09:37:09;2.53;;;1.20;;
15358;SDS011;7779;49.596;11.070;2023-08-07T09:39:38;2.97;;;1.10;;
15358;SDS011;7779;49.596;11.070;2023-08-07T09:42:08;1.97;;;1.03;;
15358;SDS011;7779;49.596;11.070;2023-08-07T09:44:40;1.70;;;1.27;;
15358;SDS011;7779;49.596;11.070;2023-08-07T09:47:16;2.43;;;1.30;;
15358;SDS011;7779;49.596;11.070;2023-08-07T09:49:44;3.10;;;1.70;;
15358;SDS011;7779;49.596;11.070;2023-08-07T09:52:11;1.33;;;1.20;;
15358;SDS011;7779;49.596;11.070;2023-08-07T09:54:40;1.87;;;1.17;;
15358;SDS011;7779;49.596;11.070;2023-08-07T09:57:06;1.40;;;1.13;;
15358;SDS011;7779;49.596;11.070;2023-08-07T09:59:33;2.63;;;1.23;;
15358;SDS011;7779;49.596;11.070;2023-08-07T10:02:00;1.63;;;1.20;;
15358;SDS011;7779;49.596;11.070;2023-08-07T10:04:27;2.60;;;1.17;;
15358;SDS011;7779;49.596;11.070;2023-08-07T10:06:53;0.80;;;0.80;;
15358;SDS011;7779;49.596;11.070;2023-08-07T10:09:21;1.67;;;1.03;;
15358;SDS011;7779;49.596;11.070;2023-08-07T10:11:48;1.17;;;1.00;;
15358;SDS011;7779;49.596;11.070;2023-08-07T10:14:15;1.53;;;0.90;;
15358;SDS011;7779;49.596;11.070;2023-08-07T10:16:42;1.53;;;1.03;;
15358;SDS011;7779;49.596;11.070;2023-08-07T10:19:08;1.63;;;1.00;;
15358;SDS011;7779;49.596;11.070;2023-08-07T10:21:40;1.23;;;1.00;;
15358;SDS011;7779;49.596;11.070;2023-08-07T10:24:08;1.73;;;1.20;;
15358;SDS011;7779;49.596;11.070;2023-08-07T10:26:37;2.07;;;1.30;;
15358;SDS011;7779;49.596;11.070;2023-08-07T10:29:10;1.27;;;1.10;;
15358;SDS011;7779;49.596;11.070;2023-08-07T10:31:41;1.43;;;1.10;;
15358;SDS011;7779;49.596;11.070;2023-08-07T10:34:09;1.33;;;1.03;;
15358;SDS011;7779;49.596;11.070;2023-08-07T10:36:36;2.27;;;1.10;;
15358;SDS011;7779;49.596;11.070;2023-08-07T10:39:10;1.53;;;1.20;;
15358;SDS011;7779;49.596;11.070;2023-08-07T10:41:46;1.90;;;1.30;;
15358;SDS011;7779;49.596;11.070;2023-08-07T10:44:22;1.20;;;1.10;;
15358;SDS011;7779;49.596;11.070;2023-08-07T10:46:56;1.40;;;0.93;;
15358;SDS011;7779;49.596;11.070;2023-08-07T10:49:38;3.10;;;1.03;;
15358;SDS011;7779;49.596;11.070;2023-08-07T10:52:15;1.70;;;1.20;;
15358;SDS011;7779;49.596;11.070;2023-08-07T10:54:44;1.57;;;1.10;;
15358;SDS011;7779;49.596;11.070;2023-08-07T10:57:15;1.57;;;0.90;;
15358;SDS011;7779;49.596;11.070;2023-08-07T10:59:50;1.23;;;1.10;;
15358;SDS011;7779;49.596;11.070;2023-08-07T11:02:30;2.70;;;1.20;;
15358;SDS011;7779;49.596;11.070;2023-08-07T11:04:58;1.37;;;1.10;;
15358;SDS011;7779;49.596;11.070;2023-08-07T11:07:24;1.43;;;1.00;;
15358;SDS011;7779;49.596;11.070;2023-08-07T11:09:52;2.07;;;1.30;;
15358;SDS011;7779;49.596;11.070;2023-08-07T11:12:28;1.17;;;1.07;;
15358;SDS011;7779;49.596;11.070;2023-08-07T11:14:57;2.37;;;1.30;;
15358;SDS011;7779;49.596;11.070;2023-08-07T11:17:26;1.23;;;1.10;;
15358;SDS011;7779;49.596;11.070;2023-08-07T11:19:54;2.63;;;1.20;;
15358;SDS011;7779;49.596;11.070;2023-08-07T11:22:21;4.10;;;1.50;;
15358;SDS011;7779;49.596;11.070;2023-08-07T11:24:47;1.83;;;1.37;;
15358;SDS011;7779;49.596;11.070;2023-08-07T11:27:13;2.60;;;1.17;;
15358;SDS011;7779;49.596;11.070;2023-08-07T11:29:38;1.93;;;1.30;;
15358;SDS011;7779;49.596;11.070;2023-08-07T11:32:05;1.70;;;1.40;;
15358;SDS011;7779;49.596;11.070;2023-08-07T11:34:31;1.30;;;1.17;;
15358;SDS011;7779;49.596;11.070;2023-08-07T11:36:57;2.60;;;1.40;;
15358;SDS011;7779;49.596;11.070;2023-08-07T11:39:25;2.57;;;1.40;;
15358;SDS011;7779;49.596;11.070;2023-08-07T11:41:51;2.03;;;1.07;;
15358;SDS011;7779;49.596;11.070;2023-08-07T11:44:20;3.50;;;1.17;;
15358;SDS011;7779;49.596;11.070;2023-08-07T11:46:48;2.77;;;1.17;;
15358;SDS011;7779;49.596;11.070;2023-08-07T11:49:16;1.43;;;1.10;;
15358;SDS011;7779;49.596;11.070;2023-08-07T11:51:42;2.37;;;1.40;;
15358;SDS011;7779;49.596;11.070;2023-08-07T11:54:13;2.60;;;1.20;;
15358;SDS011;7779;49.596;11.070;2023-08-07T11:56:41;3.17;;;1.20;;
15358;SDS011;7779;49.596;11.070;2023-08-07T11:59:08;1.40;;;1.07;;
15358;SDS011;7779;49.596;11.070;2023-08-07T12:01:36;2.47;;;1.30;;
15358;SDS011;7779;49.596;11.070;2023-08-07T12:06:35;1.30;;;1.10;;
15358;SDS011;7779;49.596;11.070;2023-08-07T12:09:04;1.47;;;0.93;;
15358;SDS011;7779;49.596;11.070;2023-08-07T12:11:37;1.30;;;1.03;;
15358;SDS011;7779;49.596;11.070;2023-08-07T12:14:03;2.43;;;0.93;;
15358;SDS011;7779;49.596;11.070;2023-08-07T12:16:32;1.50;;;1.07;;
15358;SDS011;7779;49.596;11.070;2023-08-07T12:18:59;2.47;;;1.13;;
15358;SDS011;7779;49.596;11.070;2023-08-07T12:21:26;1.90;;;0.90;;
15358;SDS011;7779;49.596;11.070;2023-08-07T12:23:56;2.13;;;0.90;;
15358;SDS011;7779;49.596;11.070;2023-08-07T12:26:22;1.40;;;1.10;;
15358;SDS011;7779;49.596;11.070;2023-08-07T12:28:48;2.27;;;1.00;;
15358;SDS011;7779;49.596;11.070;2023-08-07T12:31:14;2.03;;;1.00;;
15358;SDS011;7779;49.596;11.070;2023-08-07T12:33:41;1.53;;;1.00;;
15358;SDS011;7779;49.596;11.070;2023-08-07T12:36:06;1.93;;;0.70;;
15358;SDS011;7779;49.596;11.070;2023-08-07T12:38:33;1.00;;;0.90;;
15358;SDS011;7779;49.596;11.070;2023-08-07T12:40:58;1.30;;;0.73;;
15358;SDS011;7779;49.596;11.070;2023-08-07T12:43:25;2.33;;;1.00;;
15358;SDS011;7779;49.596;11.070;2023-08-07T12:45:51;0.97;;;0.73;;
15358;SDS011;7779;49.596;11.070;2023-08-07T12:48:18;1.63;;;0.80;;
15358;SDS011;7779;49.596;11.070;2023-08-07T12:50:44;1.00;;;0.90;;
15358;SDS011;7779;49.596;11.070;2023-08-07T12:53:09;1.67;;;0.80;;
15358;SDS011;7779;49.596;11.070;2023-08-07T12:55:35;2.07;;;0.80;;
15358;SDS011;7779;49.596;11.070;2023-08-07T12:58:01;1.10;;;0.80;;
15358;SDS011;7779;49.596;11.070;2023-08-07T13:00:26;1.50;;;0.90;;
15358;SDS011;7779;49.596;11.070;2023-08-07T13:02:52;0.93;;;0.80;;
15358;SDS011;7779;49.596;11.070;2023-08-07T13:05:20;1.40;;;1.00;;
15358;SDS011;7779;49.596;11.070;2023-08-07T13:07:47;0.90;;;0.77;;
15358;SDS011;7779;49.596;11.070;2023-08-07T13:10:14;1.03;;;0.93;;
15358;SDS011;7779;49.596;11.070;2023-08-07T13:12:42;1.50;;;1.10;;
15358;SDS011;7779;49.596;11.070;2023-08-07T13:15:10;1.47;;;1.00;;
15358;SDS011;7779;49.596;11.070;2023-08-07T13:17:38;2.03;;;1.10;;
15358;SDS011;7779;49.596;11.070;2023-08-07T13:20:05;1.73;;;0.90;;
15358;SDS011;7779;49.596;11.070;2023-08-07T13:22:36;1.27;;;1.10;;
15358;SDS011;7779;49.596;11.070;2023-08-07T13:25:02;1.27;;;0.90;;
15358;SDS011;7779;49.596;11.070;2023-08-07T13:27:30;2.30;;;1.00;;
15358;SDS011;7779;49.596;11.070;2023-08-07T13:29:57;1.30;;;0.87;;
15358;SDS011;7779;49.596;11.070;2023-08-07T13:32:23;1.67;;;0.90;;
15358;SDS011;7779;49.596;11.070;2023-08-07T13:34:50;1.60;;;1.00;;
15358;SDS011;7779;49.596;11.070;2023-08-07T13:37:16;1.27;;;0.97;;
15358;SDS011;7779;49.596;11.070;2023-08-07T13:39:42;2.17;;;1.20;;
15358;SDS011;7779;49.596;11.070;2023-08-07T13:42:08;1.50;;;1.00;;
15358;SDS011;7779;49.596;11.070;2023-08-07T13:44:35;2.03;;;1.03;;
15358;SDS011;7779;49.596;11.070;2023-08-07T13:47:04;1.67;;;0.70;;
15358;SDS011;7779;49.596;11.070;2023-08-07T13:49:31;2.07;;;1.20;;
15358;SDS011;7779;49.596;11.070;2023-08-07T13:51:56;1.27;;;0.90;;
15358;SDS011;7779;49.596;11.070;2023-08-07T13:54:22;1.57;;;1.00;;
15358;SDS011;7779;49.596;11.070;2023-08-07T13:56:48;1.33;;;0.90;;
15358;SDS011;7779;49.596;11.070;2023-08-07T13:59:15;1.70;;;0.80;;
15358;SDS011;7779;49.596;11.070;2023-08-07T14:01:41;1.60;;;0.90;;
15358;SDS011;7779;49.596;11.070;2023-08-07T14:04:07;1.40;;;0.90;;
15358;SDS011;7779;49.596;11.070;2023-08-07T14:06:33;1.17;;;0.80;;
15358;SDS011;7779;49.596;11.070;2023-08-07T14:08:58;0.73;;;0.73;;
15358;SDS011;7779;49.596;11.070;2023-08-07T14:11:24;1.30;;;0.80;;
15358;SDS011;7779;49.596;11.070;2023-08-07T14:13:55;1.00;;;0.90;;
15358;SDS011;7779;49.596;11.070;2023-08-07T14:16:24;2.10;;;1.00;;
15358;SDS011;7779;49.596;11.070;2023-08-07T14:18:51;1.83;;;1.10;;
15358;SDS011;7779;49.596;11.070;2023-08-07T14:21:17;1.60;;;0.90;;
15358;SDS011;7779;49.596;11.070;2023-08-07T14:23:42;1.57;;;1.10;;
15358;SDS011;7779;49.596;11.070;2023-08-07T14:26:11;2.10;;;0.90;;
15358;SDS011;7779;49.596;11.070;2023-08-07T14:28:37;1.60;;;0.90;;
15358;SDS011;7779;49.596;11.070;2023-08-07T14:31:06;2.17;;;1.07;;
15358;SDS011;7779;49.596;11.070;2023-08-07T14:33:33;1.73;;;1.10;;
15358;SDS011;7779;49.596;11.070;2023-08-07T14:35:59;1.83;;;1.07;;
15358;SDS011;7779;49.596;11.070;2023-08-07T14:38:25;2.20;;;1.00;;
15358;SDS011;7779;49.596;11.070;2023-08-07T14:40:51;1.50;;;1.00;;
15358;SDS011;7779;49.596;11.070;2023-08-07T14:43:17;1.90;;;1.27;;
15358;SDS011;7779;49.596;11.070;2023-08-07T14:45:43;1.90;;;1.10;;
15358;SDS011;7779;49.596;11.070;2023-08-07T14:48:09;1.90;;;1.33;;
15358;SDS011;7779;49.596;11.070;2023-08-07T14:50:35;1.73;;;1.23;;
15358;SDS011;7779;49.596;11.070;2023-08-07T14:53:01;1.70;;;1.30;;
15358;SDS011;7779;49.596;11.070;2023-08-07T14:55:26;2.73;;;1.27;;
15358;SDS011;7779;49.596;11.070;2023-08-07T14:57:52;2.17;;;1.53;;